Time;durP1;ratioP1;P1;durP2;ratioP2;P2;SDS_P1;SDS_P2;PMS_P1;PMS_P2;Temp;Humidity;BMP_temperature;BMP_pressure;BME280_temperature;BME280_humidity;BME280_pressure;Samples;Min_cycle;Max_cycle;Signal;HPM_P1;HPM_P2
2022/05/12 00:01:54;;;;;;;10.80;9.18;;;27.70;99.90;;;;;;4189619;28;20667;-68
2022/05/12 00:03:59;;;;;;;11.38;9.15;;;27.70;99.90;;;;;;4191492;28;20102;-68
2022/05/12 00:06:04;;;;;;;10.38;9.05;;;27.70;99.90;;;;;;4191855;28;20047;-67
2022/05/12 00:08:11;;;;;;;10.80;8.85;;;27.70;99.90;;;;;;4192376;28;20051;-67
2022/05/12 00:10:18;;;;;;;14.05;9.55;;;27.70;99.90;;;;;;4191920;28;20048;-66
2022/05/12 00:12:23;;;;;;;12.27;8.57;;;27.70;99.90;;;;;;4192009;28;20075;-67
2022/05/12 00:14:32;;;;;;;11.77;9.05;;;27.70;99.90;;;;;;4192559;28;20044;-67
2022/05/12 00:16:37;;;;;;;10.20;8.75;;;27.70;99.90;;;;;;4193675;28;20050;-67
2022/05/12 00:18:41;;;;;;;12.27;8.77;;;27.80;99.90;;;;;;4192839;28;20058;-67
2022/05/12 00:20:48;;;;;;;9.52;8.52;;;27.70;99.90;;;;;;4193366;28;20048;-67
2022/05/12 00:23:05;;;;;;;9.23;8.32;;;27.70;99.90;;;;;;4192729;28;20110;-67
2022/05/12 00:25:16;;;;;;;11.02;7.78;;;27.80;99.90;;;;;;4191347;28;20228;-67
2022/05/12 00:27:21;;;;;;;11.05;8.52;;;27.80;99.90;;;;;;4192706;28;20044;-67
2022/05/12 00:29:26;;;;;;;11.02;8.43;;;27.90;99.90;;;;;;4192754;28;20041;-67
2022/05/12 00:31:30;;;;;;;10.98;9.25;;;27.90;99.90;;;;;;4191296;28;20040;-68
2022/05/12 00:33:39;;;;;;;13.25;8.68;;;27.90;99.90;;;;;;4191100;28;20048;-67
2022/05/12 00:35:44;;;;;;;10.65;8.77;;;28.00;99.90;;;;;;4191516;28;20043;-67
2022/05/12 00:37:51;;;;;;;8.95;8.02;;;28.00;99.90;;;;;;4191312;28;20041;-67
2022/05/12 00:39:58;;;;;;;9.60;7.40;;;28.00;99.90;;;;;;4191502;28;20102;-67
2022/05/12 00:42:03;;;;;;;7.97;7.05;;;28.00;99.90;;;;;;4189992;28;20048;-68
2022/05/12 00:44:09;;;;;;;9.27;7.80;;;28.10;99.90;;;;;;4190008;28;20049;-68
2022/05/12 00:46:17;;;;;;;10.32;8.27;;;28.10;99.90;;;;;;4189465;28;20060;-69
2022/05/12 00:48:21;;;;;;;8.63;7.35;;;28.10;99.90;;;;;;4189815;28;20056;-68
2022/05/12 00:50:40;;;;;;;9.27;7.65;;;28.20;99.90;;;;;;4190585;28;20044;-68
2022/05/12 00:52:47;;;;;;;9.98;7.80;;;28.20;99.90;;;;;;4189733;28;20118;-70
2022/05/12 00:55:01;;;;;;;8.70;7.22;;;28.10;99.90;;;;;;4192095;28;20135;-71
2022/05/12 00:57:07;;;;;;;9.57;7.07;;;28.20;99.90;;;;;;4191333;28;20454;-70
2022/05/12 00:59:17;;;;;;;10.18;7.43;;;28.20;99.90;;;;;;4197501;28;20123;-69
2022/05/12 01:01:22;;;;;;;10.45;6.93;;;28.20;99.90;;;;;;4192798;28;20068;-68
2022/05/12 01:03:27;;;;;;;10.20;8.60;;;28.30;99.90;;;;;;4190996;28;20041;-69
2022/05/12 01:05:36;;;;;;;11.32;8.15;;;28.30;99.90;;;;;;4190617;28;20479;-69
2022/05/12 01:07:40;;;;;;;11.45;8.18;;;28.40;99.90;;;;;;4192568;28;20044;-68
2022/05/12 01:09:45;;;;;;;9.13;7.60;;;28.40;99.90;;;;;;4197332;28;20102;-69
2022/05/12 01:11:50;;;;;;;10.80;8.18;;;28.50;99.90;;;;;;4191621;28;20049;-69
2022/05/12 01:14:03;;;;;;;10.30;7.63;;;28.50;99.90;;;;;;4191515;28;20419;-68
2022/05/12 01:16:07;;;;;;;;;;;28.60;99.90;;;;;;4191865;28;20036;-68
2022/05/12 01:18:17;;;;;;;8.52;7.65;;;28.60;99.90;;;;;;4191839;28;19958;-67
2022/05/12 01:20:25;;;;;;;10.30;7.95;;;28.70;99.90;;;;;;4187428;28;20688;-68
2022/05/12 01:22:52;;;;;;;10.40;8.07;;;28.70;99.90;;;;;;4189048;28;20040;-68
2022/05/12 01:25:06;;;;;;;9.00;6.93;;;28.70;99.90;;;;;;4188349;28;20056;-69
2022/05/12 01:27:22;;;;;;;8.00;6.35;;;28.70;99.90;;;;;;4192661;28;20056;-69
2022/05/12 01:29:26;;;;;;;9.43;7.22;;;28.70;99.90;;;;;;4184521;28;20068;-69
2022/05/12 01:31:35;;;;;;;8.93;7.20;;;28.80;99.90;;;;;;4192877;28;20048;-69
2022/05/12 01:33:40;;;;;;;8.25;6.47;;;28.80;99.90;;;;;;4193048;28;20064;-69
2022/05/12 01:35:45;;;;;;;10.18;7.18;;;28.70;99.90;;;;;;4192312;28;20048;-69
2022/05/12 01:37:51;;;;;;;7.38;6.60;;;28.80;99.90;;;;;;4192986;28;20049;-69
2022/05/12 01:39:56;;;;;;;7.78;6.13;;;28.80;99.90;;;;;;4193126;28;20051;-68
2022/05/12 01:42:01;;;;;;;9.32;7.10;;;28.80;99.90;;;;;;4194081;28;20037;-68
2022/05/12 01:44:13;;;;;;;7.95;6.90;;;28.90;99.90;;;;;;4197724;28;20602;-68
2022/05/12 01:46:18;;;;;;;10.43;7.38;;;28.90;99.90;;;;;;4196527;28;20068;-69
2022/05/12 01:48:23;;;;;;;10.10;6.38;;;29.00;99.90;;;;;;4196642;28;20052;-69
2022/05/12 01:50:31;;;;;;;8.13;7.03;;;29.10;99.90;;;;;;4199435;28;20059;-69
2022/05/12 01:52:37;;;;;;;7.50;6.68;;;29.10;99.90;;;;;;4196060;28;20048;-68
2022/05/12 01:54:41;;;;;;;7.97;7.18;;;29.10;99.90;;;;;;4195648;28;20044;-68
2022/05/12 01:56:48;;;;;;;8.40;7.13;;;29.20;99.90;;;;;;4196084;28;20052;-68
2022/05/12 01:58:52;;;;;;;8.15;6.93;;;29.30;99.90;;;;;;4191064;28;20046;-70
2022/05/12 02:00:57;;;;;;;7.03;6.43;;;29.30;99.90;;;;;;4193399;28;20045;-69
2022/05/12 02:03:01;;;;;;;10.40;7.88;;;29.40;99.90;;;;;;4193159;28;20504;-69
2022/05/12 02:05:11;;;;;;;8.88;7.20;;;29.40;99.90;;;;;;4194487;28;20056;-68
2022/05/12 02:07:18;;;;;;;8.23;7.07;;;29.40;99.90;;;;;;4198891;28;20040;-68
2022/05/12 02:09:27;;;;;;;9.15;7.38;;;29.50;99.90;;;;;;4194870;28;20515;-68
2022/05/12 02:11:31;;;;;;;10.00;7.78;;;29.60;99.90;;;;;;4193761;28;20045;-68
2022/05/12 02:13:36;;;;;;;9.23;7.20;;;29.60;99.90;;;;;;4194962;28;20067;-68
2022/05/12 02:15:42;;;;;;;8.60;7.22;;;29.60;99.90;;;;;;4194264;28;20074;-68
2022/05/12 02:17:49;;;;;;;7.47;6.70;;;29.70;99.90;;;;;;4191209;28;20059;-68
2022/05/12 02:19:55;;;;;;;9.23;7.50;;;29.70;99.90;;;;;;4193136;28;20091;-68
2022/05/12 02:22:03;;;;;;;14.73;7.45;;;29.90;99.90;;;;;;4194725;28;20117;-68
2022/05/12 02:24:08;;;;;;;8.43;7.28;;;30.00;99.90;;;;;;4193570;28;20056;-68
2022/05/12 02:26:12;;;;;;;9.27;7.13;;;30.10;99.90;;;;;;4192189;28;20616;-68
2022/05/12 02:28:19;;;;;;;8.85;7.13;;;30.20;99.90;;;;;;4190081;28;20054;-68
2022/05/12 02:30:26;;;;;;;9.45;7.50;;;30.30;99.90;;;;;;4186959;28;20041;-69
2022/05/12 02:32:30;;;;;;;9.20;7.38;;;30.40;99.90;;;;;;4187801;28;20438;-68
2022/05/12 02:34:39;;;;;;;8.40;7.47;;;30.40;99.90;;;;;;4193120;28;20059;-69
2022/05/12 02:36:59;;;;;;;8.13;7.22;;;30.40;99.90;;;;;;4191141;28;20115;-68
2022/05/12 02:39:04;;;;;;;8.20;6.43;;;30.50;99.90;;;;;;4193925;28;20443;-69
2022/05/12 02:41:10;;;;;;;9.32;7.28;;;30.50;99.90;;;;;;4194715;28;20518;-70
2022/05/12 02:43:25;;;;;;;7.63;6.68;;;30.50;99.90;;;;;;4194554;28;20084;-70
2022/05/12 02:45:29;;;;;;;7.03;6.43;;;30.60;99.90;;;;;;4197193;28;20094;-69
2022/05/12 02:47:36;;;;;;;7.43;6.70;;;30.70;99.90;;;;;;4197916;28;20044;-70
2022/05/12 02:49:41;;;;;;;8.43;6.70;;;30.80;99.90;;;;;;4194768;28;20040;-73
2022/05/12 02:51:47;;;;;;;10.68;7.30;;;30.90;99.90;;;;;;4194343;28;20048;-69
2022/05/12 02:53:55;;;;;;;7.32;6.53;;;30.90;99.90;;;;;;4194444;28;20682;-70
2022/05/12 02:56:00;;;;;;;7.78;6.43;;;30.90;99.90;;;;;;4192958;28;20047;-70
2022/05/12 02:58:05;;;;;;;7.45;6.00;;;30.80;99.90;;;;;;4186291;28;20079;-69
2022/05/12 03:00:16;;;;;;;7.60;6.20;;;30.90;99.90;;;;;;4192100;28;20068;-72
2022/05/12 03:02:21;;;;;;;7.07;6.38;;;31.00;99.90;;;;;;4188472;28;20132;-70
2022/05/12 03:04:26;;;;;;;7.03;5.78;;;31.10;99.90;;;;;;4194820;28;20056;-70
2022/05/12 03:06:35;;;;;;;7.00;5.70;;;31.30;99.90;;;;;;4194247;28;20052;-70
2022/05/12 03:08:44;;;;;;;6.55;5.95;;;31.30;99.90;;;;;;4176673;28;20103;-70
2022/05/12 03:10:52;;;;;;;6.78;6.07;;;31.30;99.90;;;;;;4196666;28;20143;-69
2022/05/12 03:13:01;;;;;;;8.10;5.95;;;31.30;99.90;;;;;;4195286;28;20106;-70
2022/05/12 03:15:06;;;;;;;6.90;6.30;;;31.30;99.90;;;;;;4192434;28;20512;-69
2022/05/12 03:17:11;;;;;;;7.00;6.20;;;31.40;99.90;;;;;;4194409;28;20514;-69
2022/05/12 03:19:21;;;;;;;7.72;5.85;;;31.50;99.90;;;;;;4188041;28;20044;-69
2022/05/12 03:21:27;;;;;;;7.05;5.72;;;31.50;99.90;;;;;;4192837;28;20075;-69
2022/05/12 03:23:32;;;;;;;8.27;5.60;;;31.60;99.90;;;;;;4193929;28;20135;-68
2022/05/12 03:25:43;;;;;;;5.43;4.93;;;31.60;99.90;;;;;;4193690;28;20080;-69
2022/05/12 03:27:47;;;;;;;9.25;5.47;;;31.70;99.90;;;;;;4190220;28;20047;-68
2022/05/12 03:29:52;;;;;;;6.93;6.22;;;31.70;99.90;;;;;;4193043;28;20044;-69
2022/05/12 03:32:00;;;;;;;8.68;6.10;;;31.60;99.90;;;;;;4194077;28;20091;-69
2022/05/12 03:34:06;;;;;;;7.82;6.22;;;31.70;99.90;;;;;;4194802;28;20048;-69
2022/05/12 03:36:11;;;;;;;6.28;5.60;;;31.70;99.90;;;;;;4194189;28;20139;-69
2022/05/12 03:38:19;;;;;;;7.38;5.28;;;31.70;99.90;;;;;;4194125;28;20089;-69
2022/05/12 03:40:24;;;;;;;6.45;5.70;;;31.80;99.90;;;;;;4193441;28;20136;-69
2022/05/12 03:42:28;;;;;;;6.38;5.07;;;31.80;99.90;;;;;;4193377;28;20048;-69
2022/05/12 03:44:46;;;;;;;8.85;4.88;;;31.70;99.90;;;;;;4193789;28;20053;-69
2022/05/12 03:46:51;;;;;;;5.40;4.90;;;31.70;99.90;;;;;;4193831;28;20569;-69
2022/05/12 03:48:56;;;;;;;6.53;4.82;;;31.60;99.90;;;;;;4192332;28;20057;-69
2022/05/12 03:51:03;;;;;;;5.95;5.35;;;31.50;99.90;;;;;;4194209;28;20076;-68
2022/05/12 03:53:07;;;;;;;5.93;5.07;;;31.50;99.90;;;;;;4190916;28;20083;-69
2022/05/12 03:55:12;;;;;;;7.88;5.05;;;31.30;99.90;;;;;;4192906;28;20036;-69
2022/05/12 03:57:20;;;;;;;6.47;5.65;;;31.20;99.90;;;;;;4192393;28;20068;-69
2022/05/12 03:59:25;;;;;;;6.88;5.53;;;31.20;99.90;;;;;;4193971;28;20510;-69
2022/05/12 04:01:29;;;;;;;6.57;5.50;;;31.10;99.90;;;;;;4191633;28;20130;-69
2022/05/12 04:03:37;;;;;;;6.13;5.30;;;31.10;99.90;;;;;;4193001;28;20089;-70
2022/05/12 04:05:41;;;;;;;7.13;5.90;;;31.00;99.90;;;;;;4185351;28;20451;-69
2022/05/12 04:07:46;;;;;;;8.00;6.10;;;31.00;99.90;;;;;;4193217;28;20294;-69
2022/05/12 04:09:53;;;;;;;7.40;6.25;;;31.00;99.90;;;;;;4193132;28;20131;-69
2022/05/12 04:11:58;;;;;;;6.97;6.25;;;31.00;99.90;;;;;;4195069;28;20051;-69
2022/05/12 04:14:04;;;;;;;7.85;7.13;;;31.00;99.90;;;;;;4192966;28;20052;-69
2022/05/12 04:16:12;;;;;;;7.40;6.47;;;31.00;99.90;;;;;;4191832;28;20052;-69
2022/05/12 04:18:17;;;;;;;8.50;7.68;;;31.00;99.90;;;;;;4192285;28;20094;-69
2022/05/12 04:20:22;;;;;;;10.98;7.90;;;31.10;99.90;;;;;;4192537;28;20090;-68
2022/05/12 04:22:30;;;;;;;12.32;6.88;;;31.30;99.90;;;;;;4192984;28;20127;-70
2022/05/12 04:24:36;;;;;;;9.82;7.72;;;31.40;99.90;;;;;;4192669;28;20139;-70
2022/05/12 04:26:40;;;;;;;7.85;7.00;;;31.50;99.90;;;;;;4192765;28;20098;-69
2022/05/12 04:28:48;;;;;;;7.85;6.75;;;31.60;99.90;;;;;;4181952;28;20603;-70
2022/05/12 04:30:53;;;;;;;8.15;6.82;;;31.70;99.90;;;;;;4191150;28;20048;-69
2022/05/12 04:35:18;;;;;;;8.05;5.82;;;31.90;99.90;;;;;;4189230;28;20044;-70
2022/05/12 04:37:30;;;;;;;6.78;6.15;;;32.00;99.90;;;;;;4189100;28;20470;-69
2022/05/12 04:39:34;;;;;;;6.53;5.75;;;32.20;99.90;;;;;;4191080;28;20280;-70
2022/05/12 04:41:43;;;;;;;5.85;5.25;;;32.30;99.90;;;;;;4188603;28;20055;-69
2022/05/12 04:43:48;;;;;;;5.47;4.78;;;32.40;99.90;;;;;;4188238;28;20131;-70
2022/05/12 04:45:53;;;;;;;5.18;4.63;;;32.50;99.80;;;;;;4190500;28;20151;-70
2022/05/12 04:48:03;;;;;;;7.60;4.78;;;32.60;99.90;;;;;;4190154;28;20048;-69
2022/05/12 04:50:09;;;;;;;5.65;4.40;;;32.70;99.10;;;;;;4190172;28;20041;-70
2022/05/12 04:52:14;;;;;;;4.78;4.25;;;32.70;98.50;;;;;;4189112;28;20051;-69
2022/05/12 04:54:22;;;;;;;5.68;4.03;;;32.60;98.90;;;;;;4190382;28;20062;-70
2022/05/12 04:56:26;;;;;;;5.90;4.35;;;32.70;98.60;;;;;;4191265;28;20047;-70
2022/05/12 04:58:31;;;;;;;6.32;4.70;;;32.60;98.60;;;;;;4192099;28;20074;-69
2022/05/12 05:00:40;;;;;;;5.18;4.40;;;32.50;99.00;;;;;;4191370;28;20126;-69
2022/05/12 05:02:45;;;;;;;6.00;4.20;;;32.50;99.10;;;;;;4217158;28;20044;-69
2022/05/12 05:04:49;;;;;;;5.07;4.57;;;32.40;99.20;;;;;;4192228;28;20041;-69
2022/05/12 05:06:56;;;;;;;5.07;4.35;;;32.30;99.10;;;;;;4193810;28;20056;-70
2022/05/12 05:09:01;;;;;;;6.15;4.72;;;32.30;99.10;;;;;;4191530;28;20391;-70
2022/05/12 05:11:11;;;;;;;5.13;4.63;;;32.30;99.00;;;;;;4194771;28;20041;-69
2022/05/12 05:13:21;;;;;;;5.55;4.70;;;32.30;99.00;;;;;;4193967;28;20059;-69
2022/05/12 05:15:25;;;;;;;4.85;4.45;;;32.40;98.80;;;;;;4195292;28;20106;-69
2022/05/12 05:17:30;;;;;;;5.60;4.65;;;32.60;98.50;;;;;;4197187;28;20049;-70
2022/05/12 05:19:36;;;;;;;5.85;4.38;;;32.80;97.90;;;;;;4198230;28;20129;-69
2022/05/12 05:21:41;;;;;;;5.72;4.20;;;32.80;98.00;;;;;;4199033;28;20110;-69
2022/05/12 05:23:46;;;;;;;5.18;4.47;;;32.80;98.00;;;;;;4198765;28;20035;-69
2022/05/12 05:25:54;;;;;;;8.52;4.85;;;32.90;98.00;;;;;;4197213;28;20093;-69
2022/05/12 05:28:05;;;;;;;5.07;4.25;;;33.20;97.80;;;;;;4190955;28;20457;-69
2022/05/12 05:30:11;;;;;;;7.05;3.75;;;33.30;97.40;;;;;;4198335;28;20052;-69
2022/05/12 05:32:20;;;;;;;5.35;3.75;;;33.30;96.80;;;;;;4197975;28;20519;-69
2022/05/12 05:34:26;;;;;;;8.73;4.57;;;33.40;96.70;;;;;;4198997;28;20063;-69
2022/05/12 05:36:31;;;;;;;5.28;4.03;;;33.20;96.90;;;;;;4198636;28;20094;-69
2022/05/12 05:38:40;;;;;;;5.00;4.05;;;33.10;96.90;;;;;;4198345;28;20033;-70
2022/05/12 05:40:48;;;;;;;4.45;4.05;;;33.10;96.70;;;;;;4198556;28;20136;-69
2022/05/12 05:42:54;;;;;;;4.22;3.83;;;33.00;97.30;;;;;;4197977;28;20068;-70
2022/05/12 05:45:00;;;;;;;4.65;4.18;;;32.90;97.50;;;;;;4197575;28;20545;-69
2022/05/12 05:47:14;;;;;;;6.07;4.45;;;33.00;96.90;;;;;;4197302;28;20037;-70
2022/05/12 05:49:19;;;;;;;4.75;4.28;;;33.10;97.00;;;;;;4196852;28;20673;-71
2022/05/12 05:53:44;;;;;;;4.85;3.75;;;33.10;96.90;;;;;;4197757;28;20037;-69
2022/05/12 05:55:50;;;;;;;5.07;4.50;;;33.10;96.30;;;;;;4196522;28;20134;-69
2022/05/12 05:57:59;;;;;;;5.90;5.10;;;33.00;96.90;;;;;;4197639;28;20045;-69
2022/05/12 06:00:09;;;;;;;6.75;5.07;;;32.80;98.40;;;;;;4196175;28;20041;-69
2022/05/12 06:02:17;;;;;;;5.95;5.10;;;32.80;98.40;;;;;;4198134;28;20105;-70
2022/05/12 06:04:25;;;;;;;10.52;5.65;;;32.90;99.10;;;;;;4194011;28;20048;-70
2022/05/12 06:06:30;;;;;;;6.57;5.70;;;32.60;99.00;;;;;;4197712;28;20538;-70
2022/05/12 06:08:34;;;;;;;7.95;5.28;;;32.80;98.80;;;;;;4198329;28;20048;-70
2022/05/12 06:10:40;;;;;;;6.20;5.50;;;32.60;98.10;;;;;;4196911;28;20155;-70
2022/05/12 06:12:45;;;;;;;7.07;5.18;;;32.60;98.20;;;;;;4198573;28;20052;-70
2022/05/12 06:14:50;;;;;;;6.60;5.80;;;32.60;98.60;;;;;;4198135;28;20101;-69
2022/05/12 06:16:58;;;;;;;7.57;5.40;;;32.60;99.00;;;;;;4197592;28;20525;-70
2022/05/12 06:19:03;;;;;;;5.28;4.78;;;32.50;98.40;;;;;;4197559;28;20131;-70
2022/05/12 06:21:12;;;;;;;6.57;5.13;;;32.50;98.60;;;;;;4197442;28;20048;-70
2022/05/12 06:23:20;;;;;;;5.63;4.97;;;32.50;98.60;;;;;;4198017;28;20072;-70
2022/05/12 06:25:27;;;;;;;7.28;5.35;;;32.50;98.80;;;;;;4197217;28;20048;-70
2022/05/12 06:27:31;;;;;;;5.50;4.28;;;32.50;98.80;;;;;;4197419;28;20131;-70
2022/05/12 06:29:41;;;;;;;5.30;4.80;;;32.50;98.70;;;;;;4196348;28;20114;-70
2022/05/12 06:31:46;;;;;;;5.03;4.28;;;32.50;98.90;;;;;;4197980;28;20040;-70
2022/05/12 06:33:52;;;;;;;5.00;4.30;;;32.50;98.50;;;;;;4196171;28;20054;-70
2022/05/12 06:36:05;;;;;;;4.88;4.38;;;32.50;98.60;;;;;;4195347;28;20041;-69
2022/05/12 06:38:11;;;;;;;4.40;4.00;;;32.60;98.30;;;;;;4197437;28;20687;-74
2022/05/12 06:40:16;;;;;;;4.63;3.58;;;32.70;97.70;;;;;;4197399;28;20100;-73
2022/05/12 06:42:28;;;;;;;5.03;2.80;;;33.00;96.90;;;;;;4197763;28;20044;-70
2022/05/12 06:44:34;;;;;;;6.70;2.92;;;33.30;95.60;;;;;;4193755;28;20580;-71
2022/05/12 06:46:40;;;;;;;3.42;2.53;;;33.50;94.80;;;;;;4196419;28;20059;-71
2022/05/12 06:48:48;;;;;;;3.78;2.08;;;33.90;93.40;;;;;;4197014;28;20048;-70
2022/05/12 06:50:53;;;;;;;3.72;2.22;;;34.10;93.00;;;;;;4196195;28;20143;-71
2022/05/12 06:52:57;;;;;;;2.78;2.30;;;34.20;92.50;;;;;;4194969;28;20041;-70
2022/05/12 06:55:06;;;;;;;6.10;3.17;;;34.20;93.00;;;;;;4195928;28;20044;-70
2022/05/12 06:57:12;;;;;;;5.28;3.53;;;34.10;95.00;;;;;;4197652;28;20387;-71
2022/05/12 06:59:16;;;;;;;7.32;4.50;;;34.10;95.00;;;;;;4197008;28;20496;-70
2022/05/12 07:01:27;;;;;;;5.30;4.35;;;34.00;95.80;;;;;;4198656;28;20072;-71
2022/05/12 07:03:32;;;;;;;5.45;4.95;;;33.80;96.30;;;;;;4198313;28;20040;-71
2022/05/12 07:05:38;;;;;;;9.38;5.28;;;33.50;96.70;;;;;;4198179;28;20067;-71
2022/05/12 07:07:47;;;;;;;7.35;4.53;;;33.30;97.00;;;;;;4197913;28;20573;-71
2022/05/12 07:09:52;;;;;;;5.72;5.13;;;33.00;97.30;;;;;;4197083;28;20084;-70
2022/05/12 07:11:57;;;;;;;5.38;4.88;;;33.00;97.40;;;;;;4211199;28;20109;-69
2022/05/12 07:14:06;;;;;;;6.07;4.68;;;32.80;97.60;;;;;;4197140;28;20051;-70
2022/05/12 07:16:10;;;;;;;7.47;5.28;;;32.60;98.10;;;;;;4197304;28;20044;-71
2022/05/12 07:18:21;;;;;;;5.72;4.70;;;32.60;98.40;;;;;;4189979;28;20044;-71
2022/05/12 07:27:25;;;;;;;5.75;4.90;;;33.40;97.10;;;;;;4194437;28;20049;-70
2022/05/12 07:29:34;;;;;;;6.85;4.32;;;33.30;97.40;;;;;;4196756;28;20044;-72
2022/05/12 07:31:38;;;;;;;6.85;4.22;;;33.30;97.10;;;;;;4195489;28;20371;-72
2022/05/12 07:33:46;;;;;;;4.20;3.80;;;33.40;96.70;;;;;;4196582;28;20513;-72
2022/05/12 07:35:51;;;;;;;4.70;3.85;;;33.40;96.00;;;;;;4187575;28;20047;-71
2022/05/12 07:37:55;;;;;;;4.28;3.78;;;33.50;95.70;;;;;;4188828;28;20950;-72
2022/05/12 07:40:00;;;;;;;4.05;3.65;;;33.40;95.90;;;;;;4186276;28;20047;-71
2022/05/12 07:42:05;;;;;;;7.22;4.57;;;33.40;96.20;;;;;;4188717;28;20055;-71
2022/05/12 07:44:16;;;;;;;5.65;4.38;;;33.30;96.40;;;;;;4189821;28;20139;-72
2022/05/12 07:46:24;;;;;;;4.60;4.20;;;33.20;96.50;;;;;;4187518;28;20048;-72
2022/05/12 07:48:29;;;;;;;5.43;4.35;;;33.10;96.70;;;;;;4190091;28;20052;-72
2022/05/12 07:50:34;;;;;;;4.65;3.97;;;33.10;96.90;;;;;;4189979;28;20054;-70
2022/05/12 07:52:42;;;;;;;6.30;4.90;;;33.00;97.60;;;;;;4188127;28;20064;-70
2022/05/12 07:54:46;;;;;;;5.13;4.60;;;33.00;97.60;;;;;;4189654;28;20048;-71
2022/05/12 07:56:51;;;;;;;5.43;4.93;;;33.00;97.80;;;;;;4180510;28;20055;-73
2022/05/12 07:58:58;;;;;;;5.30;4.30;;;33.00;98.40;;;;;;4188051;28;20597;-70
2022/05/12 08:01:02;;;;;;;4.95;4.10;;;32.90;98.40;;;;;;4190621;28;20123;-70
2022/05/12 08:03:07;;;;;;;5.00;4.47;;;32.80;98.50;;;;;;4185499;28;20523;-70
2022/05/12 08:05:15;;;;;;;9.43;4.43;;;32.70;98.40;;;;;;4191543;28;20048;-71
2022/05/12 08:07:19;;;;;;;5.70;4.28;;;32.60;98.50;;;;;;4193417;28;20133;-71
2022/05/12 08:09:24;;;;;;;5.50;4.53;;;32.60;98.70;;;;;;4193905;28;20055;-71
2022/05/12 08:11:32;;;;;;;5.63;4.32;;;32.50;98.80;;;;;;4192918;28;20110;-71
2022/05/12 08:13:37;;;;;;;5.80;4.53;;;32.50;99.00;;;;;;4212788;28;20060;-71
2022/05/12 08:15:47;;;;;;;7.47;4.30;;;32.40;99.10;;;;;;4191486;28;20518;-71
2022/05/12 08:17:57;;;;;;;5.25;4.35;;;32.40;99.30;;;;;;4191880;28;20094;-70
2022/05/12 08:20:05;;;;;;;7.55;4.40;;;32.30;99.20;;;;;;4185403;28;20685;-70
2022/05/12 08:22:10;;;;;;;6.38;4.25;;;32.30;99.30;;;;;;4193083;28;20893;-71
2022/05/12 08:24:17;;;;;;;4.85;4.05;;;32.40;99.30;;;;;;4193579;28;20072;-70
2022/05/12 08:26:22;;;;;;;4.57;4.18;;;32.30;99.40;;;;;;4193115;28;20052;-71
2022/05/12 08:28:28;;;;;;;4.97;4.50;;;32.20;99.20;;;;;;4192154;28;20052;-71
2022/05/12 08:30:36;;;;;;;5.55;4.30;;;32.20;99.30;;;;;;4174542;28;20084;-71
2022/05/12 08:32:41;;;;;;;5.85;4.13;;;32.10;99.50;;;;;;4193313;28;20443;-69
2022/05/12 08:34:45;;;;;;;6.32;4.25;;;32.10;99.50;;;;;;4192904;28;20063;-70
2022/05/12 08:36:54;;;;;;;8.48;4.00;;;32.00;99.20;;;;;;4192776;28;20052;-70
2022/05/12 08:38:58;;;;;;;6.78;4.40;;;31.90;99.50;;;;;;4193292;28;20079;-71
2022/05/12 08:41:25;;;;;;;7.15;4.40;;;31.80;99.70;;;;;;4192852;28;20040;-70
2022/05/12 08:43:57;;;;;;;6.22;4.60;;;31.80;99.90;;;;;;4185869;28;20040;-70
2022/05/12 08:46:05;;;;;;;7.65;4.45;;;31.80;99.90;;;;;;4193247;28;20063;-71
2022/05/12 08:48:10;;;;;;;6.18;4.50;;;31.90;99.90;;;;;;4191801;28;20048;-70
2022/05/12 08:50:31;;;;;;;8.65;4.82;;;31.80;99.90;;;;;;4193100;28;20102;-70
2022/05/12 08:52:47;;;;;;;6.93;4.60;;;31.80;99.90;;;;;;4194483;28;20048;-70
2022/05/12 08:55:14;;;;;;;6.68;4.70;;;31.80;99.90;;;;;;4196423;28;20036;-70
2022/05/12 08:57:32;;;;;;;11.05;7.07;;;31.80;99.90;;;;;;4196206;28;20059;-70
2022/05/12 08:59:37;;;;;;;14.80;7.38;;;31.80;99.90;;;;;;4191133;28;20131;-70
2022/05/12 09:02:13;;;;;;;9.07;6.38;;;31.80;99.90;;;;;;4194749;28;20047;-70
2022/05/12 09:04:52;;;;;;;8.90;5.97;;;31.70;99.90;;;;;;4191007;28;20053;-70
2022/05/12 09:07:17;;;;;;;6.22;5.35;;;31.70;99.90;;;;;;4191444;28;20079;-70
2022/05/12 09:09:44;;;;;;;7.50;4.55;;;31.60;99.90;;;;;;4217364;28;20040;-73
2022/05/12 09:12:02;;;;;;;7.28;4.35;;;31.60;99.90;;;;;;4191088;28;20162;-70
2022/05/12 09:14:11;;;;;;;5.45;4.28;;;31.50;99.90;;;;;;4180167;28;20040;-70
2022/05/12 09:16:38;;;;;;;5.00;4.50;;;31.40;99.90;;;;;;4188907;28;20135;-70
2022/05/12 09:18:42;;;;;;;6.45;4.30;;;31.20;99.90;;;;;;4192511;28;20151;-72
2022/05/12 09:20:47;;;;;;;6.80;5.13;;;31.10;99.90;;;;;;4193440;28;20076;-70
2022/05/12 09:22:52;;;;;;;5.70;4.43;;;30.80;99.90;;;;;;4194433;28;20045;-69
2022/05/12 09:24:57;;;;;;;8.00;5.00;;;30.70;99.90;;;;;;4193820;28;20049;-70
2022/05/12 09:27:12;;;;;;;6.80;5.03;;;30.70;99.90;;;;;;4193123;28;20494;-70
2022/05/12 09:29:22;;;;;;;9.45;6.70;;;30.70;99.90;;;;;;4188091;28;20406;-70
2022/05/12 09:31:27;;;;;;;7.45;5.50;;;30.70;99.90;;;;;;4190476;28;20082;-69
2022/05/12 09:33:34;;;;;;;6.63;4.85;;;30.80;99.90;;;;;;4187619;28;20048;-69
2022/05/12 09:35:41;;;;;;;7.47;4.22;;;30.80;99.90;;;;;;4192364;28;20542;-70
2022/05/12 09:37:46;;;;;;;9.88;3.95;;;30.70;99.90;;;;;;4191615;28;20041;-70
2022/05/12 09:39:53;;;;;;;5.82;3.30;;;30.70;99.90;;;;;;4193694;28;20045;-71
2022/05/12 09:42:01;;;;;;;9.35;3.10;;;30.60;99.90;;;;;;4193637;28;20048;-70
2022/05/12 09:44:19;;;;;;;7.40;3.42;;;30.50;99.90;;;;;;4191207;28;20121;-70
2022/05/12 09:46:29;;;;;;;11.98;4.53;;;30.40;99.90;;;;;;4192456;28;20048;-70
2022/05/12 09:48:37;;;;;;;14.68;5.13;;;30.20;99.90;;;;;;4155674;28;20053;-69
2022/05/12 09:50:42;;;;;;;19.50;5.43;;;30.00;99.90;;;;;;4192407;28;20044;-69
2022/05/12 09:53:02;;;;;;;11.50;5.47;;;29.90;99.90;;;;;;4193132;28;20771;-67
2022/05/12 09:55:27;;;;;;;10.18;5.45;;;29.80;99.90;;;;;;4174545;28;20274;-67
2022/05/12 09:57:32;;;;;;;10.77;4.60;;;29.70;99.90;;;;;;4191145;28;20045;-67
2022/05/12 09:59:36;;;;;;;7.93;3.67;;;29.80;99.90;;;;;;4188761;28;20602;-68
2022/05/12 10:01:58;;;;;;;8.25;3.35;;;29.80;99.90;;;;;;4186074;28;20067;-67
2022/05/12 10:09:15;;;;;;;10.93;7.22;;;29.80;99.90;;;;;;4190256;28;20501;-68
2022/05/12 10:11:20;;;;;;;9.73;7.97;;;29.80;99.90;;;;;;4189613;28;20139;-68
2022/05/12 10:13:46;;;;;;;12.35;7.72;;;29.70;99.90;;;;;;4188580;28;20526;-68
2022/05/12 10:15:51;;;;;;;10.45;6.05;;;29.60;99.90;;;;;;4188427;28;20813;-68
2022/05/12 10:18:33;;;;;;;8.32;3.90;;;29.70;99.90;;;;;;4189531;28;20097;-68
2022/05/12 10:20:43;;;;;;;9.48;3.88;;;29.70;99.90;;;;;;4190138;28;20044;-66
2022/05/12 10:23:22;;;;;;;5.45;2.80;;;29.70;99.90;;;;;;4192284;28;20143;-66
2022/05/12 10:25:57;;;;;;;10.65;2.50;;;29.70;99.90;;;;;;4184728;28;20063;-67
2022/05/12 10:28:36;;;;;;;6.35;3.15;;;29.60;99.90;;;;;;4139705;28;20046;-67
2022/05/12 10:31:14;;;;;;;4.43;2.53;;;29.60;99.90;;;;;;4189959;28;20060;-65
2022/05/12 10:33:53;;;;;;;6.38;2.70;;;29.50;99.90;;;;;;4188693;28;20057;-66
2022/05/12 10:36:23;;;;;;;3.63;2.60;;;29.50;99.90;;;;;;4189918;28;20048;-66
2022/05/12 10:38:50;;;;;;;6.80;3.28;;;29.50;99.90;;;;;;4189400;28;20592;-67
2022/05/12 10:41:17;;;;;;;5.72;2.63;;;29.40;99.90;;;;;;4192068;28;20509;-66
2022/05/12 10:43:53;;;;;;;4.00;2.80;;;29.40;99.90;;;;;;4185498;28;20175;-65
2022/05/12 10:46:12;;;;;;;5.20;2.95;;;29.40;99.90;;;;;;4187674;28;20049;-66
2022/05/12 10:48:50;;;;;;;7.72;3.47;;;29.50;99.90;;;;;;4188792;28;20376;-66
2022/05/12 10:51:02;;;;;;;4.72;3.00;;;29.50;99.90;;;;;;4188748;28;20410;-67
2022/05/12 10:53:29;;;;;;;6.47;3.20;;;29.40;99.90;;;;;;4188748;28;20048;-68
2022/05/12 10:55:54;;;;;;;5.90;2.75;;;29.40;99.90;;;;;;4188589;28;20052;-67
2022/05/12 10:58:37;;;;;;;3.20;2.20;;;29.40;99.90;;;;;;4188643;28;20040;-68
2022/05/12 11:01:10;;;;;;;4.20;2.42;;;29.40;99.90;;;;;;4187809;28;20054;-67
2022/05/12 11:03:48;;;;;;;4.47;1.80;;;29.30;99.90;;;;;;4189128;28;20040;-68
2022/05/12 11:05:58;;;;;;;7.18;1.60;;;29.30;99.90;;;;;;4189021;28;20102;-68
2022/05/12 11:08:32;;;;;;;2.15;1.27;;;29.10;99.90;;;;;;4190003;28;20036;-66
2022/05/12 11:10:41;;;;;;;3.67;1.25;;;29.10;99.90;;;;;;4189201;28;20059;-68
2022/05/12 11:12:47;;;;;;;2.85;1.35;;;29.00;99.90;;;;;;4193922;28;20051;-68
2022/05/12 11:14:56;;;;;;;6.07;1.42;;;29.00;99.90;;;;;;4189327;28;20044;-67
2022/05/12 11:17:14;;;;;;;3.75;1.70;;;29.10;99.90;;;;;;4189004;28;20135;-68
2022/05/12 11:19:20;;;;;;;3.17;1.55;;;29.00;99.90;;;;;;4186720;28;20102;-68
2022/05/12 11:21:29;;;;;;;3.92;1.63;;;29.00;99.90;;;;;;4188281;28;20503;-68
2022/05/12 11:23:59;;;;;;;3.63;1.20;;;29.10;99.90;;;;;;4185951;28;20036;-68
2022/05/12 11:26:43;;;;;;;4.32;1.50;;;29.00;99.90;;;;;;4186221;28;20095;-68
2022/05/12 11:31:40;;;;;;;6.45;3.00;;;28.90;99.90;;;;;;4187897;28;20163;-68
2022/05/12 11:33:50;;;;;;;4.68;2.33;;;28.90;99.90;;;;;;4213658;28;20043;-68